sensor_id;sensor_type;location;lat;lon;timestamp;P1;durP1;ratioP1;P2;durP2;ratioP2
26034;SDS011;13809;48.632;11.576;2022-10-26T00:03:08;3.17;;;2.90;;
26034;SDS011;13809;48.632;11.576;2022-10-26T00:08:11;6.67;;;3.20;;
26034;SDS011;13809;48.632;11.576;2022-10-26T00:13:16;3.50;;;3.20;;
26034;SDS011;13809;48.632;11.576;2022-10-26T00:18:19;3.17;;;2.87;;
26034;SDS011;13809;48.632;11.576;2022-10-26T00:23:23;3.87;;;3.30;;
26034;SDS011;13809;48.632;11.576;2022-10-26T00:28:27;3.70;;;3.40;;
26034;SDS011;13809;48.632;11.576;2022-10-26T00:33:31;3.43;;;3.13;;
26034;SDS011;13809;48.632;11.576;2022-10-26T00:38:34;4.43;;;3.37;;
26034;SDS011;13809;48.632;11.576;2022-10-26T00:43:40;4.00;;;3.27;;
26034;SDS011;13809;48.632;11.576;2022-10-26T00:48:45;3.07;;;2.70;;
26034;SDS011;13809;48.632;11.576;2022-10-26T00:53:50;3.50;;;2.73;;
26034;SDS011;13809;48.632;11.576;2022-10-26T00:58:56;2.87;;;2.67;;
26034;SDS011;13809;48.632;11.576;2022-10-26T01:04:04;3.67;;;3.07;;
26034;SDS011;13809;48.632;11.576;2022-10-26T01:09:07;3.10;;;2.80;;
26034;SDS011;13809;48.632;11.576;2022-10-26T01:14:13;4.37;;;3.23;;
26034;SDS011;13809;48.632;11.576;2022-10-26T01:25:00;3.73;;;2.90;;
26034;SDS011;13809;48.632;11.576;2022-10-26T01:30:13;6.33;;;3.20;;
26034;SDS011;13809;48.632;11.576;2022-10-26T01:35:31;4.47;;;2.70;;
26034;SDS011;13809;48.632;11.576;2022-10-26T01:40:38;2.53;;;2.33;;
26034;SDS011;13809;48.632;11.576;2022-10-26T01:45:47;3.13;;;2.50;;
26034;SDS011;13809;48.632;11.576;2022-10-26T01:50:52;4.50;;;2.53;;
26034;SDS011;13809;48.632;11.576;2022-10-26T01:55:58;4.50;;;2.50;;
26034;SDS011;13809;48.632;11.576;2022-10-26T02:01:06;4.33;;;2.57;;
26034;SDS011;13809;48.632;11.576;2022-10-26T02:06:18;2.60;;;2.40;;
26034;SDS011;13809;48.632;11.576;2022-10-26T02:11:32;4.90;;;2.43;;
26034;SDS011;13809;48.632;11.576;2022-10-26T02:16:43;6.00;;;2.27;;
26034;SDS011;13809;48.632;11.576;2022-10-26T02:21:56;4.37;;;2.50;;
26034;SDS011;13809;48.632;11.576;2022-10-26T02:27:04;2.57;;;2.37;;
26034;SDS011;13809;48.632;11.576;2022-10-26T02:32:11;4.53;;;2.73;;
26034;SDS011;13809;48.632;11.576;2022-10-26T02:37:14;3.40;;;2.70;;
26034;SDS011;13809;48.632;11.576;2022-10-26T02:42:21;3.37;;;2.90;;
26034;SDS011;13809;48.632;11.576;2022-10-26T02:47:26;3.50;;;3.13;;
26034;SDS011;13809;48.632;11.576;2022-10-26T02:52:36;4.07;;;3.67;;
26034;SDS011;13809;48.632;11.576;2022-10-26T02:57:49;4.53;;;3.07;;
26034;SDS011;13809;48.632;11.576;2022-10-26T03:02:57;3.77;;;2.90;;
26034;SDS011;13809;48.632;11.576;2022-10-26T03:08:03;2.90;;;2.70;;
26034;SDS011;13809;48.632;11.576;2022-10-26T03:13:06;3.87;;;2.90;;
26034;SDS011;13809;48.632;11.576;2022-10-26T03:18:11;4.40;;;2.80;;
26034;SDS011;13809;48.632;11.576;2022-10-26T03:23:14;2.80;;;2.40;;
26034;SDS011;13809;48.632;11.576;2022-10-26T03:28:17;2.80;;;2.60;;
26034;SDS011;13809;48.632;11.576;2022-10-26T03:33:22;6.20;;;2.77;;
26034;SDS011;13809;48.632;11.576;2022-10-26T03:38:28;2.60;;;2.40;;
26034;SDS011;13809;48.632;11.576;2022-10-26T03:43:31;3.07;;;2.47;;
26034;SDS011;13809;48.632;11.576;2022-10-26T03:48:35;2.70;;;2.50;;
26034;SDS011;13809;48.632;11.576;2022-10-26T03:53:38;2.80;;;2.50;;
26034;SDS011;13809;48.632;11.576;2022-10-26T03:58:42;2.90;;;2.60;;
26034;SDS011;13809;48.632;11.576;2022-10-26T04:03:46;5.03;;;2.60;;
26034;SDS011;13809;48.632;11.576;2022-10-26T04:08:49;2.93;;;2.20;;
26034;SDS011;13809;48.632;11.576;2022-10-26T04:13:58;2.77;;;2.33;;
26034;SDS011;13809;48.632;11.576;2022-10-26T04:19:03;3.17;;;2.87;;
26034;SDS011;13809;48.632;11.576;2022-10-26T04:24:06;3.40;;;3.13;;
26034;SDS011;13809;48.632;11.576;2022-10-26T04:29:09;3.50;;;3.10;;
26034;SDS011;13809;48.632;11.576;2022-10-26T04:34:15;5.17;;;3.27;;
26034;SDS011;13809;48.632;11.576;2022-10-26T04:39:18;3.47;;;3.17;;
26034;SDS011;13809;48.632;11.576;2022-10-26T04:44:21;3.50;;;3.20;;
26034;SDS011;13809;48.632;11.576;2022-10-26T04:49:26;4.77;;;3.20;;
26034;SDS011;13809;48.632;11.576;2022-10-26T04:54:29;6.00;;;3.10;;
26034;SDS011;13809;48.632;11.576;2022-10-26T04:59:32;5.80;;;3.63;;
26034;SDS011;13809;48.632;11.576;2022-10-26T05:04:37;5.13;;;3.47;;
26034;SDS011;13809;48.632;11.576;2022-10-26T05:09:40;4.63;;;3.57;;
26034;SDS011;13809;48.632;11.576;2022-10-26T05:14:43;4.67;;;4.10;;
26034;SDS011;13809;48.632;11.576;2022-10-26T05:19:48;5.40;;;4.20;;
26034;SDS011;13809;48.632;11.576;2022-10-26T05:24:55;5.27;;;4.77;;
26034;SDS011;13809;48.632;11.576;2022-10-26T05:29:58;4.10;;;3.30;;
26034;SDS011;13809;48.632;11.576;2022-10-26T05:35:03;3.80;;;3.47;;
26034;SDS011;13809;48.632;11.576;2022-10-26T05:40:07;3.70;;;2.67;;
26034;SDS011;13809;48.632;11.576;2022-10-26T05:45:12;5.13;;;2.63;;
26034;SDS011;13809;48.632;11.576;2022-10-26T05:50:16;4.27;;;3.00;;
26034;SDS011;13809;48.632;11.576;2022-10-26T05:55:20;3.27;;;2.70;;
26034;SDS011;13809;48.632;11.576;2022-10-26T06:00:24;3.23;;;2.93;;
26034;SDS011;13809;48.632;11.576;2022-10-26T06:05:31;3.30;;;2.87;;
26034;SDS011;13809;48.632;11.576;2022-10-26T06:10:39;3.77;;;2.60;;
26034;SDS011;13809;48.632;11.576;2022-10-26T06:15:45;4.80;;;2.87;;
26034;SDS011;13809;48.632;11.576;2022-10-26T06:21:00;3.60;;;3.30;;
26034;SDS011;13809;48.632;11.576;2022-10-26T06:26:14;3.13;;;2.83;;
26034;SDS011;13809;48.632;11.576;2022-10-26T06:31:27;3.90;;;2.80;;
26034;SDS011;13809;48.632;11.576;2022-10-26T06:36:32;3.27;;;3.00;;
26034;SDS011;13809;48.632;11.576;2022-10-26T06:41:36;3.30;;;3.00;;
26034;SDS011;13809;48.632;11.576;2022-10-26T06:46:40;4.63;;;2.80;;
26034;SDS011;13809;48.632;11.576;2022-10-26T06:51:50;3.20;;;3.00;;
26034;SDS011;13809;48.632;11.576;2022-10-26T06:56:59;3.43;;;2.70;;
26034;SDS011;13809;48.632;11.576;2022-10-26T07:02:03;3.03;;;2.83;;
26034;SDS011;13809;48.632;11.576;2022-10-26T07:07:09;3.27;;;2.50;;
26034;SDS011;13809;48.632;11.576;2022-10-26T07:12:15;2.57;;;2.37;;
26034;SDS011;13809;48.632;11.576;2022-10-26T07:17:18;4.77;;;2.47;;
26034;SDS011;13809;48.632;11.576;2022-10-26T07:22:22;4.20;;;2.33;;
26034;SDS011;13809;48.632;11.576;2022-10-26T07:27:26;2.20;;;2.00;;
26034;SDS011;13809;48.632;11.576;2022-10-26T07:32:29;4.50;;;2.30;;
26034;SDS011;13809;48.632;11.576;2022-10-26T07:37:34;2.60;;;2.30;;
26034;SDS011;13809;48.632;11.576;2022-10-26T07:42:38;2.30;;;2.10;;
26034;SDS011;13809;48.632;11.576;2022-10-26T07:47:45;3.03;;;2.47;;
26034;SDS011;13809;48.632;11.576;2022-10-26T07:52:50;4.33;;;3.53;;
26034;SDS011;13809;48.632;11.576;2022-10-26T07:57:53;3.00;;;2.77;;
26034;SDS011;13809;48.632;11.576;2022-10-26T08:02:58;2.53;;;2.33;;
26034;SDS011;13809;48.632;11.576;2022-10-26T08:08:04;2.93;;;2.00;;
26034;SDS011;13809;48.632;11.576;2022-10-26T08:13:07;2.47;;;2.27;;
26034;SDS011;13809;48.632;11.576;2022-10-26T08:18:10;2.40;;;2.13;;
26034;SDS011;13809;48.632;11.576;2022-10-26T08:23:15;4.93;;;2.40;;
26034;SDS011;13809;48.632;11.576;2022-10-26T08:28:18;3.10;;;2.30;;
26034;SDS011;13809;48.632;11.576;2022-10-26T08:33:21;3.23;;;2.23;;
26034;SDS011;13809;48.632;11.576;2022-10-26T08:38:26;3.60;;;2.37;;
26034;SDS011;13809;48.632;11.576;2022-10-26T08:43:31;2.97;;;2.20;;
26034;SDS011;13809;48.632;11.576;2022-10-26T08:48:41;4.57;;;2.50;;
26034;SDS011;13809;48.632;11.576;2022-10-26T08:53:49;2.67;;;1.87;;
26034;SDS011;13809;48.632;11.576;2022-10-26T08:58:56;2.53;;;2.33;;
26034;SDS011;13809;48.632;11.576;2022-10-26T09:04:02;2.83;;;2.23;;
26034;SDS011;13809;48.632;11.576;2022-10-26T09:09:13;3.87;;;2.07;;
26034;SDS011;13809;48.632;11.576;2022-10-26T09:14:20;2.70;;;1.97;;
26034;SDS011;13809;48.632;11.576;2022-10-26T09:25:17;2.23;;;1.87;;
26034;SDS011;13809;48.632;11.576;2022-10-26T09:30:21;3.00;;;2.00;;
26034;SDS011;13809;48.632;11.576;2022-10-26T09:35:25;2.67;;;2.20;;
26034;SDS011;13809;48.632;11.576;2022-10-26T09:40:35;2.20;;;2.00;;
26034;SDS011;13809;48.632;11.576;2022-10-26T09:45:47;1.80;;;1.70;;
26034;SDS011;13809;48.632;11.576;2022-10-26T09:50:52;3.30;;;1.80;;
26034;SDS011;13809;48.632;11.576;2022-10-26T09:56:06;3.47;;;1.90;;
26034;SDS011;13809;48.632;11.576;2022-10-26T10:01:19;3.47;;;1.90;;
26034;SDS011;13809;48.632;11.576;2022-10-26T10:06:23;2.73;;;1.80;;
26034;SDS011;13809;48.632;11.576;2022-10-26T10:11:37;1.60;;;1.50;;
26034;SDS011;13809;48.632;11.576;2022-10-26T10:16:47;2.63;;;1.60;;
26034;SDS011;13809;48.632;11.576;2022-10-26T10:21:53;2.20;;;1.70;;
26034;SDS011;13809;48.632;11.576;2022-10-26T10:27:00;1.50;;;1.40;;
26034;SDS011;13809;48.632;11.576;2022-10-26T10:32:04;2.93;;;1.77;;
26034;SDS011;13809;48.632;11.576;2022-10-26T10:37:12;3.23;;;1.60;;
26034;SDS011;13809;48.632;11.576;2022-10-26T10:42:28;1.50;;;1.40;;
26034;SDS011;13809;48.632;11.576;2022-10-26T10:47:34;2.93;;;1.80;;
26034;SDS011;13809;48.632;11.576;2022-10-26T10:52:38;3.13;;;1.77;;
26034;SDS011;13809;48.632;11.576;2022-10-26T10:57:47;3.43;;;1.83;;
26034;SDS011;13809;48.632;11.576;2022-10-26T11:03:03;2.43;;;1.90;;
26034;SDS011;13809;48.632;11.576;2022-10-26T11:08:27;6.40;;;2.00;;
26034;SDS011;13809;48.632;11.576;2022-10-26T11:13:37;3.30;;;1.90;;
26034;SDS011;13809;48.632;11.576;2022-10-26T11:18:46;2.03;;;1.87;;
26034;SDS011;13809;48.632;11.576;2022-10-26T11:24:00;2.97;;;2.43;;
26034;SDS011;13809;48.632;11.576;2022-10-26T11:29:27;3.37;;;2.47;;
26034;SDS011;13809;48.632;11.576;2022-10-26T11:34:41;4.27;;;2.17;;
26034;SDS011;13809;48.632;11.576;2022-10-26T11:39:57;2.93;;;2.00;;
26034;SDS011;13809;48.632;11.576;2022-10-26T11:45:08;3.33;;;1.90;;
26034;SDS011;13809;48.632;11.576;2022-10-26T11:50:18;4.27;;;1.93;;
26034;SDS011;13809;48.632;11.576;2022-10-26T11:55:24;4.67;;;2.27;;
26034;SDS011;13809;48.632;11.576;2022-10-26T12:00:28;2.87;;;2.00;;
26034;SDS011;13809;48.632;11.576;2022-10-26T12:05:34;3.73;;;2.07;;
26034;SDS011;13809;48.632;11.576;2022-10-26T12:10:47;3.00;;;1.77;;
26034;SDS011;13809;48.632;11.576;2022-10-26T12:15:56;4.27;;;1.90;;
26034;SDS011;13809;48.632;11.576;2022-10-26T12:21:05;4.13;;;2.00;;
26034;SDS011;13809;48.632;11.576;2022-10-26T12:31:51;3.70;;;2.00;;
26034;SDS011;13809;48.632;11.576;2022-10-26T12:37:10;2.00;;;1.80;;
26034;SDS011;13809;48.632;11.576;2022-10-26T12:42:28;2.50;;;1.90;;
26034;SDS011;13809;48.632;11.576;2022-10-26T12:53:21;2.70;;;2.10;;
26034;SDS011;13809;48.632;11.576;2022-10-26T13:04:24;4.30;;;2.27;;
26034;SDS011;13809;48.632;11.576;2022-10-26T13:09:54;2.77;;;2.43;;
26034;SDS011;13809;48.632;11.576;2022-10-26T13:15:02;4.53;;;2.20;;
26034;SDS011;13809;48.632;11.576;2022-10-26T13:20:15;3.40;;;2.17;;
26034;SDS011;13809;48.632;11.576;2022-10-26T13:25:21;3.47;;;2.17;;
26034;SDS011;13809;48.632;11.576;2022-10-26T13:35:51;3.50;;;2.20;;
26034;SDS011;13809;48.632;11.576;2022-10-26T13:41:04;3.07;;;2.17;;
26034;SDS011;13809;48.632;11.576;2022-10-26T13:46:17;4.37;;;2.17;;
26034;SDS011;13809;48.632;11.576;2022-10-26T13:51:32;3.10;;;1.70;;
26034;SDS011;13809;48.632;11.576;2022-10-26T13:56:42;3.43;;;1.77;;
26034;SDS011;13809;48.632;11.576;2022-10-26T14:02:04;2.10;;;1.77;;
26034;SDS011;13809;48.632;11.576;2022-10-26T14:07:11;3.37;;;1.97;;
26034;SDS011;13809;48.632;11.576;2022-10-26T14:12:21;2.73;;;2.00;;
26034;SDS011;13809;48.632;11.576;2022-10-26T14:17:25;2.53;;;1.60;;
26034;SDS011;13809;48.632;11.576;2022-10-26T14:22:29;2.77;;;2.20;;
26034;SDS011;13809;48.632;11.576;2022-10-26T14:27:37;3.63;;;1.90;;
26034;SDS011;13809;48.632;11.576;2022-10-26T14:32:41;2.57;;;1.90;;
26034;SDS011;13809;48.632;11.576;2022-10-26T14:37:47;5.30;;;2.10;;
26034;SDS011;13809;48.632;11.576;2022-10-26T14:42:54;2.60;;;2.03;;
26034;SDS011;13809;48.632;11.576;2022-10-26T14:48:00;3.47;;;1.87;;
26034;SDS011;13809;48.632;11.576;2022-10-26T14:53:12;2.50;;;1.90;;
26034;SDS011;13809;48.632;11.576;2022-10-26T14:58:17;2.33;;;1.77;;
26034;SDS011;13809;48.632;11.576;2022-10-26T15:03:27;4.30;;;2.03;;
26034;SDS011;13809;48.632;11.576;2022-10-26T15:08:41;3.53;;;2.30;;
26034;SDS011;13809;48.632;11.576;2022-10-26T15:13:56;3.00;;;2.20;;
26034;SDS011;13809;48.632;11.576;2022-10-26T15:19:05;5.70;;;2.70;;
26034;SDS011;13809;48.632;11.576;2022-10-26T15:24:16;4.57;;;2.80;;
26034;SDS011;13809;48.632;11.576;2022-10-26T15:29:39;3.73;;;2.10;;
26034;SDS011;13809;48.632;11.576;2022-10-26T15:34:46;3.10;;;2.00;;
26034;SDS011;13809;48.632;11.576;2022-10-26T15:40:06;5.73;;;2.27;;
26034;SDS011;13809;48.632;11.576;2022-10-26T15:45:12;3.37;;;1.80;;
26034;SDS011;13809;48.632;11.576;2022-10-26T15:50:19;2.00;;;1.80;;
26034;SDS011;13809;48.632;11.576;2022-10-26T15:55:25;4.43;;;2.10;;
26034;SDS011;13809;48.632;11.576;2022-10-26T16:00:28;3.30;;;2.40;;
26034;SDS011;13809;48.632;11.576;2022-10-26T16:05:31;3.67;;;2.33;;
26034;SDS011;13809;48.632;11.576;2022-10-26T16:10:36;4.70;;;2.50;;
26034;SDS011;13809;48.632;11.576;2022-10-26T16:15:39;5.00;;;4.20;;
26034;SDS011;13809;48.632;11.576;2022-10-26T16:20:43;6.70;;;4.30;;
26034;SDS011;13809;48.632;11.576;2022-10-26T16:25:49;6.30;;;4.13;;
26034;SDS011;13809;48.632;11.576;2022-10-26T16:30:57;6.47;;;5.00;;
26034;SDS011;13809;48.632;11.576;2022-10-26T16:36:01;9.90;;;7.30;;
26034;SDS011;13809;48.632;11.576;2022-10-26T16:41:07;8.00;;;7.20;;
26034;SDS011;13809;48.632;11.576;2022-10-26T16:46:12;9.50;;;8.50;;
26034;SDS011;13809;48.632;11.576;2022-10-26T16:51:17;11.73;;;9.37;;
26034;SDS011;13809;48.632;11.576;2022-10-26T16:56:25;9.80;;;8.80;;
26034;SDS011;13809;48.632;11.576;2022-10-26T17:01:30;9.07;;;8.17;;
26034;SDS011;13809;48.632;11.576;2022-10-26T17:06:34;8.40;;;7.03;;
26034;SDS011;13809;48.632;11.576;2022-10-26T17:11:38;6.33;;;5.57;;
26034;SDS011;13809;48.632;11.576;2022-10-26T17:16:41;7.13;;;4.60;;
26034;SDS011;13809;48.632;11.576;2022-10-26T17:21:44;7.07;;;3.90;;
26034;SDS011;13809;48.632;11.576;2022-10-26T17:26:49;6.70;;;4.63;;
26034;SDS011;13809;48.632;11.576;2022-10-26T17:31:52;6.60;;;4.53;;
26034;SDS011;13809;48.632;11.576;2022-10-26T17:36:55;9.23;;;5.33;;
26034;SDS011;13809;48.632;11.576;2022-10-26T17:41:59;6.03;;;4.93;;
26034;SDS011;13809;48.632;11.576;2022-10-26T17:47:03;7.23;;;5.03;;
26034;SDS011;13809;48.632;11.576;2022-10-26T17:52:06;4.33;;;3.93;;
26034;SDS011;13809;48.632;11.576;2022-10-26T17:57:10;5.23;;;4.33;;
26034;SDS011;13809;48.632;11.576;2022-10-26T18:02:13;5.70;;;4.40;;
26034;SDS011;13809;48.632;11.576;2022-10-26T18:07:17;6.10;;;4.67;;
26034;SDS011;13809;48.632;11.576;2022-10-26T18:12:21;7.80;;;4.77;;
26034;SDS011;13809;48.632;11.576;2022-10-26T18:17:24;7.47;;;4.83;;
26034;SDS011;13809;48.632;11.576;2022-10-26T18:22:28;5.07;;;4.23;;
26034;SDS011;13809;48.632;11.576;2022-10-26T18:27:32;6.87;;;5.13;;
26034;SDS011;13809;48.632;11.576;2022-10-26T18:32:35;9.83;;;5.90;;
26034;SDS011;13809;48.632;11.576;2022-10-26T18:37:38;6.97;;;5.97;;
26034;SDS011;13809;48.632;11.576;2022-10-26T18:42:43;14.97;;;10.60;;
26034;SDS011;13809;48.632;11.576;2022-10-26T18:47:46;11.97;;;9.07;;
26034;SDS011;13809;48.632;11.576;2022-10-26T18:52:50;9.83;;;8.40;;
26034;SDS011;13809;48.632;11.576;2022-10-26T18:57:54;15.57;;;12.17;;
26034;SDS011;13809;48.632;11.576;2022-10-26T19:02:58;18.97;;;16.13;;
26034;SDS011;13809;48.632;11.576;2022-10-26T19:08:01;15.47;;;12.60;;
26034;SDS011;13809;48.632;11.576;2022-10-26T19:13:06;23.90;;;20.17;;
26034;SDS011;13809;48.632;11.576;2022-10-26T19:18:09;24.93;;;21.07;;
26034;SDS011;13809;48.632;11.576;2022-10-26T19:23:12;22.20;;;18.20;;
26034;SDS011;13809;48.632;11.576;2022-10-26T19:28:17;13.40;;;10.17;;
26034;SDS011;13809;48.632;11.576;2022-10-26T19:33:21;10.20;;;8.30;;
26034;SDS011;13809;48.632;11.576;2022-10-26T19:38:26;8.40;;;6.80;;
26034;SDS011;13809;48.632;11.576;2022-10-26T19:43:31;7.77;;;6.43;;
26034;SDS011;13809;48.632;11.576;2022-10-26T19:48:35;9.27;;;7.37;;
26034;SDS011;13809;48.632;11.576;2022-10-26T19:53:39;11.87;;;9.80;;
26034;SDS011;13809;48.632;11.576;2022-10-26T19:58:44;13.63;;;9.87;;
26034;SDS011;13809;48.632;11.576;2022-10-26T20:03:47;9.97;;;8.73;;
26034;SDS011;13809;48.632;11.576;2022-10-26T20:08:50;8.53;;;6.80;;
26034;SDS011;13809;48.632;11.576;2022-10-26T20:13:55;8.03;;;6.50;;
26034;SDS011;13809;48.632;11.576;2022-10-26T20:18:59;14.93;;;12.03;;
26034;SDS011;13809;48.632;11.576;2022-10-26T20:24:02;15.20;;;13.60;;
26034;SDS011;13809;48.632;11.576;2022-10-26T20:29:11;14.10;;;11.80;;
26034;SDS011;13809;48.632;11.576;2022-10-26T20:34:15;14.50;;;13.10;;
26034;SDS011;13809;48.632;11.576;2022-10-26T20:39:18;15.63;;;14.03;;
26034;SDS011;13809;48.632;11.576;2022-10-26T20:44:24;17.47;;;15.77;;
26034;SDS011;13809;48.632;11.576;2022-10-26T20:49:31;14.70;;;13.40;;
26034;SDS011;13809;48.632;11.576;2022-10-26T20:54:36;10.60;;;9.40;;
26034;SDS011;13809;48.632;11.576;2022-10-26T20:59:46;7.07;;;6.37;;
26034;SDS011;13809;48.632;11.576;2022-10-26T21:04:51;6.73;;;5.87;;
26034;SDS011;13809;48.632;11.576;2022-10-26T21:09:54;5.57;;;4.57;;
26034;SDS011;13809;48.632;11.576;2022-10-26T21:14:59;5.43;;;4.97;;
26034;SDS011;13809;48.632;11.576;2022-10-26T21:20:02;6.93;;;4.87;;
26034;SDS011;13809;48.632;11.576;2022-10-26T21:25:06;4.87;;;4.37;;
26034;SDS011;13809;48.632;11.576;2022-10-26T21:30:12;5.17;;;4.10;;
26034;SDS011;13809;48.632;11.576;2022-10-26T21:35:15;3.73;;;3.43;;
26034;SDS011;13809;48.632;11.576;2022-10-26T21:40:19;6.13;;;4.30;;
26034;SDS011;13809;48.632;11.576;2022-10-26T21:45:23;5.67;;;4.13;;
26034;SDS011;13809;48.632;11.576;2022-10-26T21:50:26;7.03;;;3.97;;
26034;SDS011;13809;48.632;11.576;2022-10-26T21:55:30;4.37;;;3.90;;
26034;SDS011;13809;48.632;11.576;2022-10-26T22:00:34;7.03;;;4.23;;
26034;SDS011;13809;48.632;11.576;2022-10-26T22:05:38;5.07;;;3.70;;
26034;SDS011;13809;48.632;11.576;2022-10-26T22:10:46;4.00;;;3.60;;
26034;SDS011;13809;48.632;11.576;2022-10-26T22:16:00;6.43;;;3.70;;
26034;SDS011;13809;48.632;11.576;2022-10-26T22:21:04;4.97;;;3.70;;
26034;SDS011;13809;48.632;11.576;2022-10-26T22:26:09;4.87;;;3.00;;
26034;SDS011;13809;48.632;11.576;2022-10-26T22:31:15;4.50;;;3.57;;
26034;SDS011;13809;48.632;11.576;2022-10-26T22:36:20;4.70;;;3.40;;
26034;SDS011;13809;48.632;11.576;2022-10-26T22:41:23;4.27;;;3.50;;
26034;SDS011;13809;48.632;11.576;2022-10-26T22:46:28;5.77;;;3.77;;
26034;SDS011;13809;48.632;11.576;2022-10-26T22:51:32;3.93;;;3.47;;
26034;SDS011;13809;48.632;11.576;2022-10-26T22:56:36;4.37;;;3.43;;
26034;SDS011;13809;48.632;11.576;2022-10-26T23:01:40;4.50;;;3.80;;
26034;SDS011;13809;48.632;11.576;2022-10-26T23:06:43;5.00;;;3.27;;
26034;SDS011;13809;48.632;11.576;2022-10-26T23:11:47;4.47;;;3.17;;
26034;SDS011;13809;48.632;11.576;2022-10-26T23:16:51;4.93;;;3.17;;
26034;SDS011;13809;48.632;11.576;2022-10-26T23:21:54;3.57;;;3.23;;
26034;SDS011;13809;48.632;11.576;2022-10-26T23:27:03;4.40;;;3.37;;
26034;SDS011;13809;48.632;11.576;2022-10-26T23:32:08;3.80;;;3.20;;
26034;SDS011;13809;48.632;11.576;2022-10-26T23:37:11;4.77;;;3.10;;
26034;SDS011;13809;48.632;11.576;2022-10-26T23:42:15;5.47;;;3.80;;
26034;SDS011;13809;48.632;11.576;2022-10-26T23:47:19;5.57;;;3.27;;
26034;SDS011;13809;48.632;11.576;2022-10-26T23:52:22;4.60;;;3.23;;
26034;SDS011;13809;48.632;11.576;2022-10-26T23:57:25;5.63;;;3.10;;
